Time;durP1;ratioP1;P1;durP2;ratioP2;P2;SDS_P1;SDS_P2;PMS_P1;PMS_P2;Temp;Humidity;BMP_temperature;BMP_pressure;BME280_temperature;BME280_humidity;BME280_pressure;Samples;Min_cycle;Max_cycle;Signal;HPM_P1;HPM_P2
2023/03/13 00:02:31;;;;;;;38.90;17.70;;;;;;;;;;6227682;23;20218;-90
2023/03/13 00:05:36;;;;;;;39.10;18.80;;;;;;;;;;6227828;23;20171;-91
2023/03/13 00:08:42;;;;;;;37.87;18.30;;;;;;;;;;6228831;23;20511;-92
2023/03/13 00:11:49;;;;;;;40.03;18.23;;;;;;;;;;6227796;23;20206;-91
2023/03/13 00:15:00;;;;;;;39.53;18.77;;;;;;;;;;6228939;23;20182;-95
2023/03/13 00:18:05;;;;;;;38.23;18.60;;;;;;;;;;6228810;23;20182;-93
2023/03/13 00:21:11;;;;;;;38.10;19.20;;;;;;;;;;6227825;23;20186;-90
2023/03/13 00:24:16;;;;;;;39.27;19.60;;;;;;;;;;6227133;23;20282;-90
2023/03/13 00:27:23;;;;;;;37.57;18.40;;;;;;;;;;6225850;23;20677;-89
2023/03/13 00:30:28;;;;;;;39.80;18.90;;;;;;;;;;6226976;23;20166;-92
2023/03/13 00:33:34;;;;;;;38.80;18.83;;;;;;;;;;6227014;23;20175;-90
2023/03/13 00:36:39;;;;;;;38.90;18.50;;;;;;;;;;6228000;23;20151;-92
2023/03/13 00:39:45;;;;;;;35.97;18.10;;;;;;;;;;6227058;23;20492;-92
2023/03/13 00:42:51;;;;;;;37.73;18.43;;;;;;;;;;6226821;23;20179;-90
2023/03/13 00:45:57;;;;;;;45.53;18.90;;;;;;;;;;6227653;23;20262;-91
2023/03/13 00:49:02;;;;;;;42.60;17.97;;;;;;;;;;6226176;23;20199;-90
2023/03/13 00:52:07;;;;;;;42.10;18.23;;;;;;;;;;6228313;23;20171;-91
2023/03/13 00:55:12;;;;;;;72.20;19.20;;;;;;;;;;6227017;23;20172;-90
2023/03/13 00:58:19;;;;;;;43.93;17.77;;;;;;;;;;6228361;23;20155;-94
2023/03/13 01:01:25;;;;;;;37.83;18.17;;;;;;;;;;6228187;23;20158;-89
2023/03/13 01:04:30;;;;;;;65.53;17.27;;;;;;;;;;6226628;23;20179;-91
2023/03/13 01:07:34;;;;;;;34.40;17.30;;;;;;;;;;6228023;23;20179;-90
2023/03/13 01:10:40;;;;;;;47.20;18.63;;;;;;;;;;6226752;23;20163;-90
2023/03/13 01:13:54;;;;;;;57.67;18.70;;;;;;;;;;6225307;23;20218;-93
2023/03/13 01:16:59;;;;;;;48.50;18.63;;;;;;;;;;6225362;23;20232;-92
2023/03/13 01:20:30;;;;;;;38.30;18.17;;;;;;;;;;6226268;23;20191;-91
2023/03/13 01:23:35;;;;;;;105.07;17.63;;;;;;;;;;6228892;23;20190;-89
2023/03/13 01:26:45;;;;;;;47.13;16.33;;;;;;;;;;6229269;23;20167;-92
2023/03/13 01:29:51;;;;;;;175.90;18.30;;;;;;;;;;6228033;23;20195;-90
2023/03/13 01:32:56;;;;;;;135.80;18.17;;;;;;;;;;6227999;23;20175;-92
2023/03/13 01:36:02;;;;;;;86.47;16.20;;;;;;;;;;6228845;23;20231;-93
2023/03/13 01:39:08;;;;;;;125.67;18.33;;;;;;;;;;6228063;23;20171;-91
2023/03/13 01:42:14;;;;;;;105.03;17.70;;;;;;;;;;6229197;23;20182;-92
2023/03/13 01:45:49;;;;;;;154.40;18.30;;;;;;;;;;6228218;23;20170;-91
2023/03/13 01:48:58;;;;;;;161.50;17.77;;;;;;;;;;6093783;23;20681;-93
2023/03/13 01:52:06;;;;;;;129.83;17.70;;;;;;;;;;6228522;23;20171;-91
2023/03/13 01:55:15;;;;;;;125.57;16.57;;;;;;;;;;6230014;23;20167;-94
2023/03/13 01:58:23;;;;;;;101.57;16.07;;;;;;;;;;6229396;23;20236;-90
2023/03/13 02:01:32;;;;;;;156.50;16.90;;;;;;;;;;6227891;23;20167;-92
2023/03/13 02:04:40;;;;;;;82.93;14.80;;;;;;;;;;6230037;23;20232;-93
2023/03/13 02:07:48;;;;;;;99.50;14.77;;;;;;;;;;6228869;23;20171;-92
2023/03/13 02:10:55;;;;;;;123.63;15.67;;;;;;;;;;6229266;23;20210;-90
2023/03/13 02:14:02;;;;;;;90.17;14.87;;;;;;;;;;6227961;23;20504;-88
2023/03/13 02:17:08;;;;;;;105.43;16.27;;;;;;;;;;6228066;23;20257;-92
2023/03/13 02:20:16;;;;;;;94.90;16.10;;;;;;;;;;6229703;23;20171;-92
2023/03/13 02:23:25;;;;;;;156.70;16.87;;;;;;;;;;6228145;23;20167;-91
2023/03/13 02:26:32;;;;;;;186.10;17.60;;;;;;;;;;6227478;23;20218;-93
2023/03/13 02:29:37;;;;;;;114.77;15.53;;;;;;;;;;6227287;23;20191;-90
2023/03/13 02:32:43;;;;;;;130.10;17.37;;;;;;;;;;6227823;23;20186;-93
2023/03/13 02:35:49;;;;;;;98.10;15.47;;;;;;;;;;6228453;23;20279;-90
2023/03/13 02:38:58;;;;;;;140.33;15.53;;;;;;;;;;6229577;23;20191;-91
2023/03/13 02:42:06;;;;;;;127.47;15.97;;;;;;;;;;6227988;23;20630;-92
2023/03/13 02:45:15;;;;;;;166.83;16.77;;;;;;;;;;6228969;23;20167;-89
2023/03/13 02:48:31;;;;;;;123.33;15.00;;;;;;;;;;6228429;23;20171;-92
2023/03/13 02:51:39;;;;;;;179.40;16.40;;;;;;;;;;6227010;23;20242;-91
2023/03/13 02:54:48;;;;;;;164.43;16.03;;;;;;;;;;6227781;23;20167;-90
2023/03/13 02:57:54;;;;;;;90.07;14.77;;;;;;;;;;6227427;23;20171;-92
2023/03/13 03:01:06;;;;;;;140.47;15.67;;;;;;;;;;6226461;23;20167;-92
2023/03/13 03:04:12;;;;;;;169.07;16.30;;;;;;;;;;6226772;23;20170;-90
2023/03/13 03:07:18;;;;;;;100.73;15.53;;;;;;;;;;6228255;23;20172;-91
2023/03/13 03:10:23;;;;;;;150.63;16.00;;;;;;;;;;6227904;23;20190;-91
2023/03/13 03:13:35;;;;;;;92.53;14.07;;;;;;;;;;6226075;23;20166;-91
2023/03/13 03:16:40;;;;;;;102.50;14.97;;;;;;;;;;6227527;23;20175;-92
2023/03/13 03:19:47;;;;;;;82.70;13.43;;;;;;;;;;6227510;23;20191;-91
2023/03/13 03:22:53;;;;;;;89.40;13.43;;;;;;;;;;6229458;23;20171;-93
2023/03/13 03:25:59;;;;;;;186.03;14.80;;;;;;;;;;6228222;23;20175;-93
2023/03/13 03:29:06;;;;;;;147.43;13.80;;;;;;;;;;6225565;23;20606;-90
2023/03/13 03:32:11;;;;;;;109.70;13.37;;;;;;;;;;6225856;23;20167;-90
2023/03/13 03:35:16;;;;;;;76.83;12.27;;;;;;;;;;6227184;23;20171;-91
2023/03/13 03:38:22;;;;;;;165.00;14.63;;;;;;;;;;6228174;23;20219;-92
2023/03/13 03:41:28;;;;;;;132.97;12.93;;;;;;;;;;6227489;23;20287;-91
2023/03/13 03:44:35;;;;;;;95.67;13.20;;;;;;;;;;6227517;23;20271;-93
2023/03/13 03:47:41;;;;;;;97.57;12.80;;;;;;;;;;6227419;23;20218;-91
2023/03/13 03:50:47;;;;;;;64.97;12.33;;;;;;;;;;6228346;23;20234;-92
2023/03/13 03:53:54;;;;;;;51.23;12.27;;;;;;;;;;6228926;23;20183;-93
2023/03/13 03:57:04;;;;;;;68.03;13.00;;;;;;;;;;6229114;23;20199;-92
2023/03/13 04:00:14;;;;;;;100.10;12.20;;;;;;;;;;6227401;23;20199;-92
2023/03/13 04:03:26;;;;;;;87.07;11.23;;;;;;;;;;6227039;23;20163;-90
2023/03/13 04:06:31;;;;;;;72.13;10.87;;;;;;;;;;6228650;23;20210;-90
2023/03/13 04:09:37;;;;;;;167.33;13.30;;;;;;;;;;6229248;23;20249;-92
2023/03/13 04:12:44;;;;;;;112.97;12.60;;;;;;;;;;6228752;23;20171;-89
2023/03/13 04:15:51;;;;;;;60.20;11.37;;;;;;;;;;6228409;23;20182;-92
2023/03/13 04:18:57;;;;;;;56.97;11.53;;;;;;;;;;6228929;23;20193;-91
2023/03/13 04:22:11;;;;;;;62.13;11.63;;;;;;;;;;6227537;23;20175;-91
2023/03/13 04:25:21;;;;;;;50.80;11.83;;;;;;;;;;6230523;23;20658;-91
2023/03/13 04:28:28;;;;;;;107.80;12.97;;;;;;;;;;6229549;23;20174;-92
2023/03/13 04:31:34;;;;;;;51.07;11.30;;;;;;;;;;6228718;23;20594;-92
2023/03/13 04:35:06;;;;;;;79.70;12.17;;;;;;;;;;6227144;23;20170;-90
2023/03/13 04:38:18;;;;;;;80.23;11.53;;;;;;;;;;6229596;23;20175;-92
2023/03/13 04:41:47;;;;;;;110.17;12.03;;;;;;;;;;6229011;23;20167;-93
2023/03/13 04:45:00;;;;;;;80.07;12.30;;;;;;;;;;6229332;23;20171;-89
2023/03/13 04:48:20;;;;;;;87.87;12.17;;;;;;;;;;6228231;23;20175;-89
2023/03/13 04:51:35;;;;;;;50.03;12.20;;;;;;;;;;6229449;23;20171;-91
2023/03/13 04:54:54;;;;;;;63.53;11.80;;;;;;;;;;6228937;23;20496;-92
2023/03/13 04:58:14;;;;;;;102.83;11.83;;;;;;;;;;6230299;23;20174;-90
2023/03/13 05:05:47;;;;;;;80.67;12.13;;;;;;;;;;6231655;23;20203;-90
2023/03/13 05:09:10;;;;;;;40.23;10.83;;;;;;;;;;6230966;23;20195;-92
2023/03/13 05:12:29;;;;;;;70.17;11.63;;;;;;;;;;6232529;23;20176;-93
2023/03/13 05:15:58;;;;;;;57.00;11.70;;;;;;;;;;6232816;23;20162;-92
2023/03/13 05:19:22;;;;;;;54.80;12.03;;;;;;;;;;6232115;23;20198;-91
2023/03/13 05:22:48;;;;;;;56.17;10.70;;;;;;;;;;6233377;23;20164;-89
2023/03/13 05:26:15;;;;;;;47.23;12.30;;;;;;;;;;6231372;23;20217;-93
2023/03/13 05:29:30;;;;;;;43.73;10.50;;;;;;;;;;6229420;23;20256;-93
2023/03/13 05:32:52;;;;;;;50.50;10.67;;;;;;;;;;6230045;23;20504;-91
2023/03/13 05:36:23;;;;;;;53.27;10.80;;;;;;;;;;6229907;23;20175;-91
2023/03/13 05:39:49;;;;;;;55.57;11.23;;;;;;;;;;6207293;23;20195;-91
2023/03/13 05:43:05;;;;;;;36.00;9.57;;;;;;;;;;6230978;23;20191;-90
2023/03/13 05:46:29;;;;;;;27.27;10.70;;;;;;;;;;6233721;23;20186;-91
2023/03/13 05:49:55;;;;;;;31.87;10.40;;;;;;;;;;6233361;23;20737;-93
2023/03/13 05:53:12;;;;;;;27.00;10.80;;;;;;;;;;6231177;23;20171;-91
2023/03/13 05:56:47;;;;;;;29.63;11.10;;;;;;;;;;6232351;23;20166;-92
2023/03/13 06:00:13;;;;;;;23.93;10.20;;;;;;;;;;6210265;23;20243;-91
2023/03/13 06:03:30;;;;;;;30.60;10.30;;;;;;;;;;6233350;23;20217;-92
2023/03/13 06:06:36;;;;;;;24.43;8.90;;;;;;;;;;6230496;23;20155;-90
2023/03/13 06:09:43;;;;;;;27.00;9.77;;;;;;;;;;6231754;23;20195;-91
2023/03/13 06:12:54;;;;;;;22.27;9.87;;;;;;;;;;6232394;23;20224;-90
2023/03/13 06:16:01;;;;;;;37.63;10.17;;;;;;;;;;6233964;23;20220;-90
2023/03/13 06:22:42;;;;;;;25.53;10.27;;;;;;;;;;6232886;23;20211;-92
2023/03/13 06:25:48;;;;;;;19.07;9.50;;;;;;;;;;6233182;23;20359;-91
2023/03/13 06:28:55;;;;;;;29.40;9.40;;;;;;;;;;6231568;23;20163;-91
2023/03/13 06:32:01;;;;;;;32.23;8.70;;;;;;;;;;6230872;23;20622;-93
2023/03/13 06:35:06;;;;;;;20.77;9.73;;;;;;;;;;6232055;23;20171;-88
2023/03/13 06:38:12;;;;;;;45.70;19.40;;;;;;;;;;6232935;23;20171;-96
2023/03/13 06:41:18;;;;;;;30.87;15.60;;;;;;;;;;6235143;23;20171;-92
2023/03/13 06:44:26;;;;;;;29.30;12.47;;;;;;;;;;6233790;23;20216;-92
2023/03/13 06:47:32;;;;;;;21.10;9.47;;;;;;;;;;6230195;23;20219;-89
2023/03/13 06:50:39;;;;;;;16.23;8.73;;;;;;;;;;6232899;23;20203;-89
2023/03/13 06:53:46;;;;;;;20.10;9.20;;;;;;;;;;6239040;23;20155;-91
2023/03/13 06:56:51;;;;;;;34.77;8.50;;;;;;;;;;6233096;23;20172;-91
2023/03/13 06:59:58;;;;;;;24.30;8.20;;;;;;;;;;6232419;23;20290;-92
2023/03/13 07:03:04;;;;;;;18.97;9.30;;;;;;;;;;6233255;23;20211;-91
2023/03/13 07:06:11;;;;;;;20.20;9.20;;;;;;;;;;6232018;23;20187;-91
2023/03/13 07:09:18;;;;;;;22.90;9.17;;;;;;;;;;6232637;23;20191;-91
2023/03/13 07:12:24;;;;;;;18.70;8.03;;;;;;;;;;6232132;23;20174;-91
2023/03/13 07:15:31;;;;;;;16.97;8.47;;;;;;;;;;6229862;23;20147;-93
2023/03/13 07:18:37;;;;;;;13.20;7.00;;;;;;;;;;6249411;23;20267;-92
2023/03/13 07:21:46;;;;;;;34.07;7.77;;;;;;;;;;6231935;23;20203;-89
2023/03/13 07:24:51;;;;;;;15.93;7.23;;;;;;;;;;6232463;23;20210;-90
2023/03/13 07:27:57;;;;;;;14.43;7.40;;;;;;;;;;6229677;23;20220;-92
2023/03/13 07:31:08;;;;;;;16.07;7.97;;;;;;;;;;6232627;23;20190;-90
2023/03/13 07:34:16;;;;;;;22.47;8.83;;;;;;;;;;6228017;23;20229;-90
2023/03/13 07:37:22;;;;;;;18.00;8.30;;;;;;;;;;6229737;23;20235;-92
2023/03/13 07:40:27;;;;;;;13.53;7.80;;;;;;;;;;6230000;23;20941;-92
2023/03/13 07:43:33;;;;;;;19.13;9.83;;;;;;;;;;6229236;23;20175;-93
2023/03/13 07:46:40;;;;;;;74.20;43.87;;;;;;;;;;6230221;23;20615;-93
2023/03/13 07:49:45;;;;;;;13.37;7.30;;;;;;;;;;6227733;23;20238;-90
2023/03/13 07:52:51;;;;;;;13.47;7.00;;;;;;;;;;6230406;23;20186;-91
2023/03/13 07:55:58;;;;;;;14.87;7.60;;;;;;;;;;6209939;23;20238;-92
2023/03/13 07:59:03;;;;;;;13.17;7.07;;;;;;;;;;6226665;23;20234;-92
2023/03/13 08:02:12;;;;;;;14.27;7.60;;;;;;;;;;6227661;23;20171;-91
2023/03/13 08:05:17;;;;;;;15.10;8.00;;;;;;;;;;6228189;23;20626;-89
2023/03/13 08:08:23;;;;;;;16.07;8.03;;;;;;;;;;6228682;23;20166;-91
2023/03/13 08:11:30;;;;;;;14.73;7.73;;;;;;;;;;6229775;23;20198;-91
2023/03/13 08:14:36;;;;;;;16.40;8.17;;;;;;;;;;6226931;23;20199;-90
2023/03/13 08:17:43;;;;;;;10.67;5.50;;;;;;;;;;6229741;23;20174;-94
2023/03/13 08:20:53;;;;;;;13.03;5.63;;;;;;;;;;6228854;23;20195;-90
2023/03/13 08:24:00;;;;;;;7.37;4.77;;;;;;;;;;6228722;23;20172;-90
2023/03/13 08:27:06;;;;;;;10.23;5.77;;;;;;;;;;6227444;23;20594;-90
2023/03/13 08:30:16;;;;;;;14.80;5.80;;;;;;;;;;6228706;23;20260;-94
2023/03/13 08:33:23;;;;;;;11.27;5.47;;;;;;;;;;6230327;23;20191;-93
2023/03/13 08:36:29;;;;;;;9.50;5.23;;;;;;;;;;6232396;23;20162;-92
2023/03/13 08:39:34;;;;;;;16.10;6.47;;;;;;;;;;6232946;23;20168;-92
2023/03/13 08:42:40;;;;;;;32.10;10.47;;;;;;;;;;6229231;23;20194;-90
2023/03/13 08:45:45;;;;;;;13.07;7.37;;;;;;;;;;6228814;23;20167;-93
2023/03/13 08:48:52;;;;;;;13.97;7.63;;;;;;;;;;6230537;23;20175;-93
2023/03/13 08:51:57;;;;;;;14.97;7.57;;;;;;;;;;6232416;23;20194;-90
2023/03/13 08:55:03;;;;;;;19.03;8.23;;;;;;;;;;6229248;23;20291;-90
2023/03/13 08:58:08;;;;;;;17.10;8.43;;;;;;;;;;6230527;23;20170;-90
2023/03/13 09:01:14;;;;;;;20.23;9.67;;;;;;;;;;6229585;23;20222;-92
2023/03/13 09:04:21;;;;;;;16.20;8.90;;;;;;;;;;6237603;23;20186;-92
2023/03/13 09:07:27;;;;;;;13.40;7.13;;;;;;;;;;6231916;23;20642;-91
2023/03/13 09:10:33;;;;;;;14.80;7.87;;;;;;;;;;6230680;23;20256;-93
2023/03/13 09:13:42;;;;;;;13.43;6.97;;;;;;;;;;6231806;23;20175;-92
2023/03/13 09:16:48;;;;;;;14.57;7.37;;;;;;;;;;6231378;23;20167;-91
2023/03/13 09:20:20;;;;;;;12.83;7.00;;;;;;;;;;6229847;23;20764;-92
2023/03/13 09:23:26;;;;;;;14.27;7.57;;;;;;;;;;6239638;23;20159;-90
2023/03/13 09:26:31;;;;;;;16.60;8.40;;;;;;;;;;6230772;23;20171;-92
2023/03/13 09:29:40;;;;;;;14.67;7.57;;;;;;;;;;6228336;23;20167;-88
2023/03/13 09:32:45;;;;;;;15.07;7.53;;;;;;;;;;6229251;23;20176;-89
2023/03/13 09:35:50;;;;;;;13.80;7.43;;;;;;;;;;6231257;23;20218;-89
2023/03/13 09:38:58;;;;;;;17.10;8.50;;;;;;;;;;6231013;23;20536;-91
2023/03/13 09:42:08;;;;;;;17.67;9.07;;;;;;;;;;6233714;23;20158;-89
2023/03/13 09:45:15;;;;;;;14.03;7.97;;;;;;;;;;6234072;23;20174;-89
2023/03/13 09:48:25;;;;;;;15.97;7.73;;;;;;;;;;6232876;23;20267;-94
2023/03/13 09:51:37;;;;;;;23.63;10.80;;;;;;;;;;6231642;23;20199;-90
2023/03/13 09:54:47;;;;;;;16.90;9.10;;;;;;;;;;6230840;23;20622;-92
2023/03/13 09:57:55;;;;;;;14.97;7.33;;;;;;;;;;6234983;23;20633;-90
2023/03/13 10:01:31;;;;;;;17.07;8.27;;;;;;;;;;6230648;23;20222;-92
2023/03/13 10:04:39;;;;;;;12.95;7.78;;;;;;;;;;6214211;23;20183;-90
2023/03/13 10:07:44;;;;;;;18.73;9.52;;;;;;;;;;6231472;23;20143;-91
2023/03/13 10:11:00;;;;;;;21.25;8.45;;;;;;;;;;6229039;23;20307;-92
2023/03/13 10:14:07;;;;;;;13.98;7.93;;;;;;;;;;6230606;23;20183;-93
2023/03/13 10:17:16;;;;;;;14.30;7.25;;;;;;;;;;6228823;23;20227;-91
2023/03/13 10:20:35;;;;;;;17.30;6.88;;;;;;;;;;6228828;23;20186;-89
2023/03/13 10:23:41;;;;;;;11.63;6.97;;;;;;;;;;6231207;23;20155;-89
2023/03/13 10:26:48;;;;;;;12.50;5.97;;;;;;;;;;6232454;23;20167;-91
2023/03/13 10:29:52;;;;;;;9.50;6.10;;;;;;;;;;6229976;23;20239;-92
2023/03/13 10:32:59;;;;;;;14.35;7.15;;;;;;;;;;6233183;23;20175;-91
2023/03/13 10:36:09;;;;;;;10.90;6.50;;;;;;;;;;6230779;23;20254;-91
2023/03/13 10:39:16;;;;;;;22.48;11.85;;;;;;;;;;6248687;23;20207;-91
2023/03/13 10:42:32;;;;;;;18.90;9.18;;;;;;;;;;6231025;23;20211;-93
2023/03/13 10:45:42;;;;;;;12.95;6.95;;;;;;;;;;6232608;23;20167;-93
2023/03/13 10:48:47;;;;;;;12.25;6.60;;;;;;;;;;6229542;23;20172;-92
2023/03/13 10:51:54;;;;;;;14.52;7.35;;;;;;;;;;6228803;23;20295;-90
2023/03/13 10:55:05;;;;;;;15.98;7.18;;;;;;;;;;6231417;23;20187;-94
2023/03/13 10:58:18;;;;;;;14.48;7.47;;;;;;;;;;6229392;23;20244;-90
2023/03/13 11:01:24;;;;;;;15.43;7.38;;;;;;;;;;6230404;23;20513;-93
2023/03/13 11:04:31;;;;;;;15.07;7.90;;;;;;;;;;6230376;23;20178;-93
2023/03/13 11:07:39;;;;;;;15.73;8.13;;;;;;;;;;6231272;23;20502;-91
2023/03/13 11:10:53;;;;;;;15.93;8.23;;;;;;;;;;6229097;23;20257;-91
2023/03/13 11:14:15;;;;;;;15.00;8.43;;;;;;;;;;6228421;23;20167;-92
2023/03/13 11:17:25;;;;;;;15.80;8.05;;;;;;;;;;6231621;23;20155;-88
2023/03/13 11:20:57;;;;;;;17.30;8.32;;;;;;;;;;6247107;23;20195;-92
2023/03/13 11:24:06;;;;;;;14.82;8.35;;;;;;;;;;6232166;23;20171;-91
2023/03/13 11:27:16;;;;;;;15.48;7.88;;;;;;;;;;6233566;23;20170;-90
2023/03/13 11:30:32;;;;;;;14.18;6.90;;;;;;;;;;6229709;23;20220;-92
2023/03/13 11:33:42;;;;;;;14.30;6.80;;;;;;;;;;6229459;23;20175;-90
2023/03/13 11:36:54;;;;;;;11.68;5.95;;;;;;;;;;6251497;23;20180;-92
2023/03/13 11:40:03;;;;;;;15.23;7.55;;;;;;;;;;6250561;23;20183;-94
2023/03/13 11:43:13;;;;;;;15.07;7.22;;;;;;;;;;6250732;22;20175;-90
2023/03/13 11:46:33;;;;;;;17.17;9.27;;;;;;;;;;6230795;23;20171;-91
2023/03/13 11:49:54;;;;;;;17.60;9.13;;;;;;;;;;6232297;23;20239;-91
2023/03/13 11:53:09;;;;;;;16.45;9.15;;;;;;;;;;6232068;23;20265;-92
2023/03/13 11:59:47;;;;;;;18.23;8.57;;;;;;;;;;6235145;23;20168;-89
2023/03/13 12:03:23;;;;;;;14.93;7.75;;;;;;;;;;6233692;23;20175;-94
2023/03/13 12:06:35;;;;;;;17.10;7.72;;;;;;;;;;6233626;23;20167;-93
